DLH3CK EDDM-LGAV
Flight info
| Callsign | DLH3CK |
|---|---|
| Flight time | 2h 0m |
| Altitude | 35000 |
| Route | VAVOR4N VAVOR M867 RADIZ DCT REKTI DCT NEMEK DCT ELTIB DCT GLOMY DCT INLOT DCT PINDO DCT PIKOS UL607 XORKI |
| Aircraft | A321/M-SDE3FGHIRWY/LB1 |
Departure
| Time | 2026-05-07 04:05 |
|---|---|
| Airport | Munich Airport (EDDM) |
Arrival
| Time | 2026-05-07 06:05 |
|---|---|
| Airport | Athens Eleftherios Venizelos International Airport (LGAV) |
| Time | Latitude | Longitude | Altitude | Speed | Heading |
|---|---|---|---|---|---|
| 2026-05-07 03:41 | 48.35730 | 11.79685 | 1485 ft | 0 kts | 83° |
| 2026-05-07 03:55 | 48.35728 | 11.79657 | 1485 ft | 4 kts | 83° |
| 2026-05-07 03:56 | 48.35725 | 11.79617 | 1485 ft | 4 kts | 83° |
| 2026-05-07 03:56 | 48.35723 | 11.79585 | 1485 ft | 4 kts | 97° |
| 2026-05-07 03:56 | 48.35731 | 11.79550 | 1475 ft | 4 kts | 141° |
| 2026-05-07 03:56 | 48.35753 | 11.79538 | 1474 ft | 4 kts | 173° |
| 2026-05-07 03:57 | 48.35767 | 11.79536 | 1485 ft | 0 kts | 173° |
| 2026-05-07 03:59 | 48.35759 | 11.79537 | 1475 ft | 3 kts | 174° |
| 2026-05-07 03:59 | 48.35712 | 11.79545 | 1478 ft | 10 kts | 174° |
| 2026-05-07 03:59 | 48.35640 | 11.79557 | 1477 ft | 11 kts | 173° |
| 2026-05-07 03:59 | 48.35560 | 11.79571 | 1483 ft | 12 kts | 173° |
| 2026-05-07 04:00 | 48.35473 | 11.79587 | 1482 ft | 13 kts | 173° |
| 2026-05-07 04:00 | 48.35377 | 11.79604 | 1474 ft | 14 kts | 174° |
| 2026-05-07 04:00 | 48.35274 | 11.79620 | 1483 ft | 15 kts | 173° |
| 2026-05-07 04:00 | 48.35163 | 11.79639 | 1478 ft | 17 kts | 173° |
| 2026-05-07 04:01 | 48.35045 | 11.79660 | 1481 ft | 18 kts | 173° |
| 2026-05-07 04:01 | 48.34934 | 11.79679 | 1473 ft | 16 kts | 173° |
| 2026-05-07 04:01 | 48.34832 | 11.79700 | 1480 ft | 13 kts | 162° |
| 2026-05-07 04:01 | 48.34811 | 11.79821 | 1475 ft | 13 kts | 84° |
| 2026-05-07 04:02 | 48.34823 | 11.79972 | 1480 ft | 15 kts | 83° |
| 2026-05-07 04:02 | 48.34829 | 11.80136 | 1476 ft | 16 kts | 108° |
| 2026-05-07 04:02 | 48.34762 | 11.80270 | 1473 ft | 15 kts | 109° |
| 2026-05-07 04:02 | 48.34717 | 11.80399 | 1485 ft | 13 kts | 156° |
| 2026-05-07 04:03 | 48.34635 | 11.80414 | 1476 ft | 10 kts | 175° |
| 2026-05-07 04:03 | 48.34591 | 11.80420 | 1485 ft | 0 kts | 174° |
| 2026-05-07 04:03 | 48.34583 | 11.80422 | 1475 ft | 4 kts | 174° |
| 2026-05-07 04:03 | 48.34521 | 11.80427 | 1472 ft | 11 kts | 184° |
| 2026-05-07 04:04 | 48.34473 | 11.80350 | 1480 ft | 11 kts | 262° |
| 2026-05-07 04:04 | 48.34458 | 11.80174 | 1485 ft | 37 kts | 263° |
| 2026-05-07 04:04 | 48.34400 | 11.79417 | 1486 ft | 107 kts | 263° |
| 2026-05-07 04:04 | 48.34293 | 11.77999 | 1476 ft | 164 kts | 263° |
| 2026-05-07 04:05 | 48.34160 | 11.76135 | 1790 ft | 186 kts | 264° |
| 2026-05-07 04:05 | 48.34032 | 11.74192 | 2527 ft | 186 kts | 263° |
| 2026-05-07 04:05 | 48.33799 | 11.72257 | 3024 ft | 195 kts | 246° |
| 2026-05-07 04:05 | 48.32796 | 11.70807 | 3201 ft | 215 kts | 200° |
| 2026-05-07 04:06 | 48.31307 | 11.70397 | 3641 ft | 221 kts | 184° |
| 2026-05-07 04:06 | 48.29761 | 11.70391 | 4227 ft | 224 kts | 176° |
| 2026-05-07 04:06 | 48.28272 | 11.71078 | 4801 ft | 229 kts | 151° |
| 2026-05-07 04:06 | 48.26921 | 11.72529 | 5031 ft | 249 kts | 144° |
| 2026-05-07 04:07 | 48.25446 | 11.74120 | 5305 ft | 269 kts | 146° |
| 2026-05-07 04:07 | 48.23887 | 11.75740 | 5913 ft | 275 kts | 147° |
| 2026-05-07 04:07 | 48.22294 | 11.77366 | 6581 ft | 279 kts | 148° |
| 2026-05-07 04:07 | 48.20677 | 11.79002 | 7244 ft | 282 kts | 148° |
| 2026-05-07 04:08 | 48.19036 | 11.80658 | 7896 ft | 286 kts | 147° |
| 2026-05-07 04:08 | 48.17511 | 11.82616 | 8527 ft | 293 kts | 133° |
| 2026-05-07 04:08 | 48.16197 | 11.84981 | 9176 ft | 297 kts | 130° |
| 2026-05-07 04:08 | 48.14892 | 11.87355 | 9815 ft | 300 kts | 131° |
| 2026-05-07 04:09 | 48.13556 | 11.89786 | 10251 ft | 311 kts | 131° |
| 2026-05-07 04:09 | 48.12134 | 11.92365 | 10386 ft | 331 kts | 131° |
| 2026-05-07 04:09 | 48.10622 | 11.95101 | 10516 ft | 350 kts | 131° |
| 2026-05-07 04:09 | 48.09033 | 11.97980 | 10641 ft | 368 kts | 131° |
| 2026-05-07 04:10 | 48.07329 | 12.00919 | 10914 ft | 378 kts | 137° |
| 2026-05-07 04:10 | 48.05268 | 12.03380 | 11424 ft | 381 kts | 147° |
| 2026-05-07 04:10 | 48.03079 | 12.05613 | 11986 ft | 382 kts | 147° |
| 2026-05-07 04:10 | 48.00885 | 12.07845 | 12588 ft | 382 kts | 147° |
| 2026-05-07 04:11 | 47.98677 | 12.10085 | 13150 ft | 384 kts | 147° |
| 2026-05-07 04:11 | 47.96462 | 12.12333 | 13683 ft | 387 kts | 147° |
| 2026-05-07 04:11 | 47.94232 | 12.14600 | 14198 ft | 389 kts | 147° |
| 2026-05-07 04:11 | 47.92086 | 12.17095 | 14678 ft | 393 kts | 142° |
| 2026-05-07 04:12 | 47.89996 | 12.19738 | 15157 ft | 395 kts | 142° |
| 2026-05-07 04:12 | 47.87892 | 12.22397 | 15620 ft | 398 kts | 142° |
| 2026-05-07 04:12 | 47.85770 | 12.25072 | 16074 ft | 400 kts | 142° |
| 2026-05-07 04:12 | 47.83639 | 12.27753 | 16523 ft | 403 kts | 142° |
| 2026-05-07 04:13 | 47.81517 | 12.30416 | 16940 ft | 405 kts | 142° |
| 2026-05-07 04:13 | 47.79348 | 12.33130 | 17380 ft | 407 kts | 142° |
| 2026-05-07 04:13 | 47.77174 | 12.35845 | 17793 ft | 410 kts | 143° |
| 2026-05-07 04:13 | 47.74985 | 12.38576 | 18200 ft | 412 kts | 143° |
| 2026-05-07 04:14 | 47.72784 | 12.41316 | 18603 ft | 414 kts | 143° |
| 2026-05-07 04:14 | 47.70569 | 12.44071 | 19020 ft | 416 kts | 143° |
| 2026-05-07 04:14 | 47.68337 | 12.46834 | 19431 ft | 418 kts | 143° |
| 2026-05-07 04:14 | 47.66098 | 12.49593 | 19819 ft | 420 kts | 143° |
| 2026-05-07 04:15 | 47.63840 | 12.52368 | 20208 ft | 422 kts | 143° |
| 2026-05-07 04:15 | 47.61580 | 12.55171 | 20601 ft | 425 kts | 142° |
| 2026-05-07 04:15 | 47.59345 | 12.58069 | 20988 ft | 428 kts | 141° |
| 2026-05-07 04:15 | 47.57136 | 12.61036 | 21361 ft | 430 kts | 140° |
| 2026-05-07 04:16 | 47.54935 | 12.64038 | 21679 ft | 432 kts | 140° |
| 2026-05-07 04:16 | 47.52719 | 12.67063 | 22008 ft | 434 kts | 140° |
| 2026-05-07 04:16 | 47.50492 | 12.70087 | 22347 ft | 435 kts | 141° |
| 2026-05-07 04:16 | 47.48244 | 12.73106 | 22678 ft | 437 kts | 141° |
| 2026-05-07 04:17 | 47.45981 | 12.76120 | 22993 ft | 439 kts | 141° |
| 2026-05-07 04:17 | 47.43729 | 12.79102 | 23324 ft | 441 kts | 141° |
| 2026-05-07 04:17 | 47.41436 | 12.82130 | 23647 ft | 443 kts | 141° |
| 2026-05-07 04:17 | 47.39136 | 12.85162 | 23940 ft | 445 kts | 141° |
| 2026-05-07 04:18 | 47.36821 | 12.88215 | 24248 ft | 447 kts | 141° |
| 2026-05-07 04:18 | 47.34500 | 12.91277 | 24540 ft | 448 kts | 141° |
| 2026-05-07 04:18 | 47.32172 | 12.94349 | 24822 ft | 450 kts | 141° |
| 2026-05-07 04:18 | 47.29835 | 12.97433 | 25091 ft | 452 kts | 141° |
| 2026-05-07 04:19 | 47.27492 | 13.00520 | 25344 ft | 454 kts | 141° |
| 2026-05-07 04:19 | 47.25133 | 13.03623 | 25592 ft | 455 kts | 141° |
| 2026-05-07 04:19 | 47.22766 | 13.06732 | 25836 ft | 457 kts | 141° |
| 2026-05-07 04:19 | 47.20392 | 13.09847 | 26042 ft | 458 kts | 141° |
| 2026-05-07 04:20 | 47.18011 | 13.12967 | 26274 ft | 460 kts | 141° |
| 2026-05-07 04:20 | 47.15615 | 13.16106 | 26480 ft | 461 kts | 141° |
| 2026-05-07 04:20 | 47.13211 | 13.19249 | 26683 ft | 463 kts | 141° |
| 2026-05-07 04:21 | 47.08411 | 13.25525 | 27258 ft | 461 kts | 141° |
| 2026-05-07 04:21 | 47.06011 | 13.28654 | 27524 ft | 461 kts | 141° |
| 2026-05-07 04:21 | 47.03612 | 13.31769 | 27805 ft | 460 kts | 141° |
| 2026-05-07 04:21 | 47.01243 | 13.34839 | 28082 ft | 460 kts | 142° |
| 2026-05-07 04:22 | 46.98850 | 13.37934 | 28336 ft | 459 kts | 142° |
| 2026-05-07 04:22 | 46.96456 | 13.41028 | 28593 ft | 459 kts | 142° |
| 2026-05-07 04:22 | 46.94063 | 13.44117 | 28823 ft | 458 kts | 142° |
| 2026-05-07 04:22 | 46.91669 | 13.47203 | 29096 ft | 458 kts | 142° |
| 2026-05-07 04:23 | 46.89280 | 13.50289 | 29375 ft | 457 kts | 142° |
| 2026-05-07 04:23 | 46.86898 | 13.53363 | 29623 ft | 457 kts | 142° |
| 2026-05-07 04:23 | 46.84514 | 13.56435 | 29874 ft | 456 kts | 142° |
| 2026-05-07 04:23 | 46.82133 | 13.59497 | 30142 ft | 456 kts | 142° |
| 2026-05-07 04:24 | 46.79755 | 13.62553 | 30405 ft | 455 kts | 142° |
| 2026-05-07 04:24 | 46.77382 | 13.65602 | 30657 ft | 455 kts | 142° |
| 2026-05-07 04:24 | 46.75034 | 13.68613 | 30900 ft | 454 kts | 142° |
| 2026-05-07 04:24 | 46.72661 | 13.71645 | 31141 ft | 454 kts | 142° |
| 2026-05-07 04:25 | 46.70286 | 13.74673 | 31395 ft | 453 kts | 142° |
| 2026-05-07 04:25 | 46.67915 | 13.77695 | 31633 ft | 453 kts | 142° |
| 2026-05-07 04:25 | 46.65546 | 13.80716 | 31881 ft | 452 kts | 142° |
| 2026-05-07 04:25 | 46.63178 | 13.83734 | 32126 ft | 452 kts | 142° |
| 2026-05-07 04:26 | 46.60811 | 13.86743 | 32334 ft | 452 kts | 142° |
| 2026-05-07 04:26 | 46.58449 | 13.89745 | 32547 ft | 451 kts | 142° |
| 2026-05-07 04:26 | 46.56123 | 13.92817 | 32758 ft | 452 kts | 140° |
| 2026-05-07 04:26 | 46.53855 | 13.95988 | 32962 ft | 452 kts | 139° |
| 2026-05-07 04:27 | 46.51630 | 13.99214 | 33167 ft | 452 kts | 138° |
| 2026-05-07 04:27 | 46.49417 | 14.02464 | 33341 ft | 453 kts | 138° |
| 2026-05-07 04:27 | 46.47197 | 14.05710 | 33542 ft | 452 kts | 138° |
| 2026-05-07 04:27 | 46.44972 | 14.08925 | 33726 ft | 452 kts | 139° |
| 2026-05-07 04:28 | 46.42734 | 14.12116 | 33933 ft | 451 kts | 139° |
| 2026-05-07 04:28 | 46.40483 | 14.15288 | 34146 ft | 450 kts | 139° |
| 2026-05-07 04:28 | 46.38261 | 14.18399 | 34342 ft | 450 kts | 139° |
| 2026-05-07 04:28 | 46.36010 | 14.21542 | 34535 ft | 449 kts | 139° |
| 2026-05-07 04:29 | 46.33763 | 14.24682 | 34700 ft | 449 kts | 139° |
| 2026-05-07 04:29 | 46.31516 | 14.27826 | 34877 ft | 449 kts | 139° |
| 2026-05-07 04:29 | 46.27022 | 14.34117 | 34972 ft | 450 kts | 139° |
| 2026-05-07 04:30 | 46.22520 | 14.40422 | 34972 ft | 450 kts | 139° |
| 2026-05-07 04:30 | 46.18025 | 14.46710 | 34970 ft | 450 kts | 139° |
| 2026-05-07 04:31 | 46.13524 | 14.52995 | 34971 ft | 450 kts | 139° |
| 2026-05-07 04:31 | 46.09013 | 14.59259 | 34973 ft | 450 kts | 139° |
| 2026-05-07 04:32 | 46.04490 | 14.65520 | 34980 ft | 451 kts | 139° |
| 2026-05-07 04:32 | 45.99960 | 14.71780 | 34983 ft | 452 kts | 139° |
| 2026-05-07 04:33 | 45.95422 | 14.78042 | 34985 ft | 452 kts | 139° |
| 2026-05-07 04:33 | 45.90910 | 14.84251 | 35003 ft | 452 kts | 140° |
| 2026-05-07 04:34 | 45.86359 | 14.90497 | 34987 ft | 452 kts | 140° |
| 2026-05-07 04:34 | 45.81802 | 14.96729 | 34986 ft | 453 kts | 140° |
| 2026-05-07 04:35 | 45.77244 | 15.02961 | 34994 ft | 453 kts | 140° |
| 2026-05-07 04:35 | 45.72682 | 15.09181 | 34995 ft | 453 kts | 140° |
| 2026-05-07 04:36 | 45.68112 | 15.15392 | 34999 ft | 453 kts | 140° |
| 2026-05-07 04:36 | 45.63535 | 15.21586 | 34996 ft | 453 kts | 140° |
| 2026-05-07 04:37 | 45.58957 | 15.27775 | 34998 ft | 453 kts | 140° |
| 2026-05-07 04:37 | 45.54320 | 15.33853 | 35004 ft | 452 kts | 142° |
| 2026-05-07 04:38 | 45.49540 | 15.39682 | 35000 ft | 451 kts | 143° |
| 2026-05-07 04:38 | 45.44736 | 15.45441 | 34998 ft | 451 kts | 143° |
| 2026-05-07 04:39 | 45.39959 | 15.51236 | 34987 ft | 451 kts | 142° |
| 2026-05-07 04:39 | 45.35194 | 15.57057 | 34988 ft | 452 kts | 142° |
| 2026-05-07 04:40 | 45.30420 | 15.62879 | 34990 ft | 452 kts | 142° |
| 2026-05-07 04:40 | 45.25644 | 15.68688 | 34987 ft | 452 kts | 143° |
| 2026-05-07 04:41 | 45.20863 | 15.74469 | 34986 ft | 451 kts | 143° |
| 2026-05-07 04:41 | 45.16082 | 15.80237 | 35005 ft | 452 kts | 143° |
| 2026-05-07 04:42 | 45.11333 | 15.85973 | 34992 ft | 452 kts | 143° |
| 2026-05-07 04:42 | 45.06540 | 15.91733 | 34998 ft | 452 kts | 143° |
| 2026-05-07 04:43 | 45.01743 | 15.97485 | 34999 ft | 452 kts | 143° |
| 2026-05-07 04:43 | 44.96943 | 16.03235 | 35002 ft | 452 kts | 143° |
| 2026-05-07 04:44 | 44.92959 | 16.08005 | 35011 ft | 452 kts | 143° |
| 2026-05-07 04:44 | 44.88156 | 16.13734 | 35004 ft | 452 kts | 143° |
| 2026-05-07 04:45 | 44.83344 | 16.19450 | 35008 ft | 453 kts | 143° |
| 2026-05-07 04:45 | 44.78526 | 16.25168 | 35013 ft | 453 kts | 143° |
| 2026-05-07 04:46 | 44.73700 | 16.30888 | 35005 ft | 453 kts | 143° |
| 2026-05-07 04:46 | 44.68871 | 16.36588 | 35016 ft | 454 kts | 143° |
| 2026-05-07 04:47 | 44.64031 | 16.42294 | 35016 ft | 454 kts | 143° |
| 2026-05-07 04:47 | 44.59197 | 16.47986 | 35020 ft | 454 kts | 143° |
| 2026-05-07 04:48 | 44.54384 | 16.53636 | 35023 ft | 454 kts | 143° |
| 2026-05-07 04:48 | 44.49534 | 16.59312 | 35027 ft | 454 kts | 143° |
| 2026-05-07 04:49 | 44.44682 | 16.64975 | 35035 ft | 454 kts | 143° |
| 2026-05-07 04:49 | 44.39828 | 16.70621 | 35035 ft | 454 kts | 143° |
| 2026-05-07 04:50 | 44.34971 | 16.76271 | 35035 ft | 454 kts | 143° |
| 2026-05-07 04:50 | 44.30117 | 16.81913 | 35036 ft | 454 kts | 143° |
| 2026-05-07 04:51 | 44.25263 | 16.87541 | 35032 ft | 454 kts | 143° |
| 2026-05-07 04:51 | 44.20409 | 16.93150 | 35031 ft | 453 kts | 143° |
| 2026-05-07 04:52 | 44.15546 | 16.98747 | 35036 ft | 453 kts | 143° |
| 2026-05-07 04:52 | 44.10683 | 17.04331 | 35035 ft | 453 kts | 143° |
| 2026-05-07 04:53 | 44.05839 | 17.09877 | 35031 ft | 454 kts | 143° |
| 2026-05-07 04:53 | 44.00967 | 17.15466 | 35039 ft | 454 kts | 143° |
| 2026-05-07 04:54 | 43.96086 | 17.21046 | 35044 ft | 454 kts | 143° |
| 2026-05-07 04:54 | 43.91197 | 17.26610 | 35050 ft | 454 kts | 143° |
| 2026-05-07 04:55 | 43.86307 | 17.32167 | 35052 ft | 455 kts | 143° |
| 2026-05-07 04:55 | 43.81410 | 17.37713 | 35056 ft | 455 kts | 143° |
| 2026-05-07 04:56 | 43.76508 | 17.43267 | 35057 ft | 455 kts | 143° |
| 2026-05-07 04:56 | 43.71604 | 17.48813 | 35070 ft | 455 kts | 143° |
| 2026-05-07 04:57 | 43.66696 | 17.54351 | 35069 ft | 455 kts | 144° |
| 2026-05-07 04:57 | 43.61779 | 17.59873 | 35077 ft | 456 kts | 144° |
| 2026-05-07 04:58 | 43.56851 | 17.65405 | 35095 ft | 456 kts | 144° |
| 2026-05-07 04:58 | 43.51985 | 17.70951 | 35098 ft | 457 kts | 143° |
| 2026-05-07 04:59 | 43.47159 | 17.76643 | 35096 ft | 457 kts | 142° |
| 2026-05-07 04:59 | 43.42335 | 17.82336 | 35098 ft | 456 kts | 142° |
| 2026-05-07 05:00 | 43.37496 | 17.87985 | 35102 ft | 456 kts | 143° |
| 2026-05-07 05:00 | 43.32652 | 17.93595 | 35101 ft | 456 kts | 143° |
| 2026-05-07 05:01 | 43.27799 | 17.99212 | 35101 ft | 456 kts | 143° |
| 2026-05-07 05:01 | 43.22978 | 18.04772 | 35102 ft | 456 kts | 142° |
| 2026-05-07 05:02 | 43.18119 | 18.10384 | 35100 ft | 457 kts | 142° |
| 2026-05-07 05:02 | 43.13261 | 18.15986 | 35102 ft | 457 kts | 142° |
| 2026-05-07 05:03 | 43.08390 | 18.21587 | 35103 ft | 457 kts | 142° |
| 2026-05-07 05:03 | 43.03523 | 18.27168 | 35101 ft | 457 kts | 143° |
| 2026-05-07 05:04 | 42.98649 | 18.32728 | 35104 ft | 456 kts | 143° |
| 2026-05-07 05:04 | 42.93771 | 18.38294 | 35107 ft | 457 kts | 143° |
| 2026-05-07 05:05 | 42.88893 | 18.43861 | 35110 ft | 457 kts | 143° |
| 2026-05-07 05:05 | 42.84012 | 18.49413 | 35117 ft | 457 kts | 143° |
| 2026-05-07 05:06 | 42.79128 | 18.54947 | 35119 ft | 457 kts | 143° |
| 2026-05-07 05:06 | 42.74231 | 18.60477 | 35121 ft | 457 kts | 143° |
| 2026-05-07 05:07 | 42.69369 | 18.65969 | 35125 ft | 457 kts | 143° |
| 2026-05-07 05:07 | 42.64477 | 18.71486 | 35129 ft | 457 kts | 143° |
| 2026-05-07 05:08 | 42.59577 | 18.76996 | 35138 ft | 457 kts | 143° |
| 2026-05-07 05:08 | 42.54672 | 18.82505 | 35153 ft | 458 kts | 143° |
| 2026-05-07 05:09 | 42.49759 | 18.88010 | 35152 ft | 458 kts | 143° |
| 2026-05-07 05:09 | 42.44840 | 18.93501 | 35161 ft | 458 kts | 143° |
| 2026-05-07 05:10 | 42.39920 | 18.98987 | 35161 ft | 458 kts | 143° |
| 2026-05-07 05:10 | 42.35000 | 19.04469 | 35162 ft | 458 kts | 143° |
| 2026-05-07 05:11 | 42.30074 | 19.09938 | 35162 ft | 458 kts | 143° |
| 2026-05-07 05:11 | 42.25137 | 19.15398 | 35161 ft | 458 kts | 143° |
| 2026-05-07 05:12 | 42.20235 | 19.20820 | 35161 ft | 458 kts | 143° |
| 2026-05-07 05:12 | 42.15299 | 19.26270 | 35158 ft | 459 kts | 143° |
| 2026-05-07 05:13 | 42.10356 | 19.31708 | 35157 ft | 459 kts | 143° |
| 2026-05-07 05:13 | 42.05408 | 19.37147 | 35158 ft | 459 kts | 143° |
| 2026-05-07 05:14 | 42.00461 | 19.42578 | 35153 ft | 459 kts | 143° |
| 2026-05-07 05:14 | 41.95486 | 19.47971 | 35157 ft | 459 kts | 144° |
| 2026-05-07 05:15 | 41.90417 | 19.53186 | 35159 ft | 459 kts | 145° |
| 2026-05-07 05:15 | 41.85309 | 19.58354 | 35158 ft | 460 kts | 145° |
| 2026-05-07 05:16 | 41.80217 | 19.63553 | 35160 ft | 460 kts | 144° |
| 2026-05-07 05:16 | 41.75137 | 19.68769 | 35163 ft | 460 kts | 144° |
| 2026-05-07 05:17 | 41.70084 | 19.73946 | 35160 ft | 460 kts | 144° |
| 2026-05-07 05:17 | 41.64994 | 19.79138 | 35160 ft | 460 kts | 144° |
| 2026-05-07 05:18 | 41.59898 | 19.84324 | 35161 ft | 460 kts | 144° |
| 2026-05-07 05:18 | 41.54809 | 19.89505 | 35160 ft | 460 kts | 144° |
| 2026-05-07 05:19 | 41.49713 | 19.94672 | 35160 ft | 460 kts | 145° |
| 2026-05-07 05:19 | 41.44611 | 19.99811 | 35160 ft | 459 kts | 145° |
| 2026-05-07 05:20 | 41.39546 | 20.04917 | 35158 ft | 460 kts | 144° |
| 2026-05-07 05:20 | 41.34450 | 20.10068 | 35151 ft | 460 kts | 144° |
| 2026-05-07 05:21 | 41.26789 | 20.17787 | 35150 ft | 460 kts | 144° |
| 2026-05-07 05:22 | 41.21667 | 20.22914 | 35152 ft | 461 kts | 144° |
| 2026-05-07 05:22 | 41.16541 | 20.28042 | 35153 ft | 462 kts | 144° |
| 2026-05-07 05:23 | 41.11407 | 20.33161 | 35153 ft | 461 kts | 144° |
| 2026-05-07 05:23 | 41.06272 | 20.38275 | 35153 ft | 461 kts | 144° |
| 2026-05-07 05:24 | 41.01138 | 20.43387 | 35154 ft | 463 kts | 144° |
| 2026-05-07 05:24 | 40.95981 | 20.48508 | 35156 ft | 463 kts | 144° |
| 2026-05-07 05:25 | 40.90854 | 20.53584 | 35158 ft | 463 kts | 144° |
| 2026-05-07 05:25 | 40.85699 | 20.58686 | 35157 ft | 464 kts | 144° |
| 2026-05-07 05:26 | 40.80528 | 20.63798 | 35160 ft | 464 kts | 144° |
| 2026-05-07 05:26 | 40.75354 | 20.68895 | 35159 ft | 464 kts | 144° |
| 2026-05-07 05:27 | 40.70174 | 20.73986 | 35161 ft | 464 kts | 145° |
| 2026-05-07 05:27 | 40.64994 | 20.79062 | 35160 ft | 464 kts | 145° |
| 2026-05-07 05:28 | 40.59816 | 20.84137 | 35159 ft | 464 kts | 145° |
| 2026-05-07 05:28 | 40.54629 | 20.89203 | 35159 ft | 464 kts | 145° |
| 2026-05-07 05:29 | 40.49434 | 20.94257 | 35158 ft | 464 kts | 145° |
| 2026-05-07 05:29 | 40.44408 | 20.99495 | 35157 ft | 465 kts | 140° |
| 2026-05-07 05:30 | 40.39595 | 21.05178 | 35157 ft | 465 kts | 139° |
| 2026-05-07 05:30 | 40.34817 | 21.10910 | 35157 ft | 465 kts | 139° |
| 2026-05-07 05:31 | 40.29970 | 21.16536 | 35157 ft | 466 kts | 140° |
| 2026-05-07 05:31 | 40.25070 | 21.22106 | 35158 ft | 466 kts | 140° |
| 2026-05-07 05:32 | 40.20169 | 21.27677 | 35162 ft | 467 kts | 140° |
| 2026-05-07 05:32 | 40.15312 | 21.33227 | 35166 ft | 467 kts | 140° |
| 2026-05-07 05:33 | 40.10418 | 21.38823 | 35169 ft | 467 kts | 140° |
| 2026-05-07 05:33 | 40.05519 | 21.44391 | 35170 ft | 467 kts | 140° |
| 2026-05-07 05:34 | 40.00619 | 21.49953 | 35177 ft | 467 kts | 140° |
| 2026-05-07 05:34 | 39.95713 | 21.55506 | 35172 ft | 467 kts | 140° |
| 2026-05-07 05:35 | 39.90804 | 21.61061 | 35167 ft | 467 kts | 140° |
| 2026-05-07 05:35 | 39.86719 | 21.65674 | 35163 ft | 468 kts | 140° |
| 2026-05-07 05:36 | 39.81797 | 21.71217 | 35160 ft | 468 kts | 140° |
| 2026-05-07 05:36 | 39.76876 | 21.76746 | 35161 ft | 468 kts | 140° |
| 2026-05-07 05:37 | 39.71954 | 21.82276 | 35161 ft | 468 kts | 140° |
| 2026-05-07 05:37 | 39.67027 | 21.87807 | 35157 ft | 467 kts | 140° |
| 2026-05-07 05:38 | 39.62096 | 21.93313 | 35148 ft | 468 kts | 140° |
| 2026-05-07 05:38 | 39.57193 | 21.98774 | 35140 ft | 468 kts | 140° |
| 2026-05-07 05:39 | 39.52254 | 22.04268 | 35131 ft | 467 kts | 140° |
| 2026-05-07 05:39 | 39.47322 | 22.09758 | 35133 ft | 468 kts | 140° |
| 2026-05-07 05:40 | 39.42384 | 22.15249 | 35123 ft | 468 kts | 140° |
| 2026-05-07 05:40 | 39.37436 | 22.20728 | 35122 ft | 468 kts | 140° |
| 2026-05-07 05:41 | 39.32477 | 22.26196 | 35120 ft | 469 kts | 140° |
| 2026-05-07 05:41 | 39.27505 | 22.31671 | 35121 ft | 469 kts | 140° |
| 2026-05-07 05:42 | 39.22564 | 22.37104 | 35116 ft | 469 kts | 140° |
| 2026-05-07 05:42 | 39.17598 | 22.42555 | 35107 ft | 469 kts | 140° |
| 2026-05-07 05:43 | 39.12628 | 22.48009 | 35107 ft | 469 kts | 140° |
| 2026-05-07 05:43 | 39.07654 | 22.53462 | 35109 ft | 470 kts | 140° |
| 2026-05-07 05:44 | 39.02662 | 22.58920 | 35108 ft | 471 kts | 140° |
| 2026-05-07 05:44 | 38.97660 | 22.64370 | 35110 ft | 471 kts | 140° |
| 2026-05-07 05:45 | 38.92660 | 22.69811 | 35109 ft | 471 kts | 140° |
| 2026-05-07 05:45 | 38.87685 | 22.75216 | 35112 ft | 472 kts | 140° |
| 2026-05-07 05:46 | 38.82666 | 22.80650 | 35110 ft | 472 kts | 140° |
| 2026-05-07 05:46 | 38.80161 | 22.83360 | 34995 ft | 471 kts | 140° |
| 2026-05-07 05:46 | 38.77661 | 22.86063 | 34713 ft | 470 kts | 140° |
| 2026-05-07 05:46 | 38.75166 | 22.88762 | 34467 ft | 470 kts | 140° |
| 2026-05-07 05:47 | 38.72664 | 22.91466 | 34221 ft | 470 kts | 140° |
| 2026-05-07 05:47 | 38.70166 | 22.94163 | 33694 ft | 471 kts | 140° |
| 2026-05-07 05:47 | 38.67651 | 22.96872 | 32788 ft | 474 kts | 140° |
| 2026-05-07 05:47 | 38.65121 | 22.99591 | 31901 ft | 476 kts | 140° |
| 2026-05-07 05:48 | 38.62572 | 23.02328 | 30958 ft | 479 kts | 140° |
| 2026-05-07 05:48 | 38.60011 | 23.05075 | 29983 ft | 482 kts | 140° |
| 2026-05-07 05:48 | 38.57436 | 23.07835 | 28986 ft | 484 kts | 140° |
| 2026-05-07 05:48 | 38.54846 | 23.10611 | 27929 ft | 486 kts | 140° |
| 2026-05-07 05:49 | 38.52254 | 23.13391 | 26846 ft | 488 kts | 140° |
| 2026-05-07 05:49 | 38.49648 | 23.16184 | 25644 ft | 491 kts | 140° |
| 2026-05-07 05:49 | 38.47051 | 23.18962 | 24510 ft | 493 kts | 140° |
| 2026-05-07 05:49 | 38.44423 | 23.21771 | 23473 ft | 491 kts | 140° |
| 2026-05-07 05:50 | 38.41817 | 23.24554 | 22597 ft | 486 kts | 140° |
| 2026-05-07 05:50 | 38.39240 | 23.27304 | 21728 ft | 480 kts | 140° |
| 2026-05-07 05:50 | 38.36685 | 23.30027 | 20712 ft | 479 kts | 140° |
| 2026-05-07 05:50 | 38.34142 | 23.32733 | 19859 ft | 473 kts | 140° |
| 2026-05-07 05:51 | 38.31626 | 23.35402 | 19010 ft | 468 kts | 140° |
| 2026-05-07 05:51 | 38.29132 | 23.38042 | 18180 ft | 462 kts | 140° |
| 2026-05-07 05:51 | 38.26672 | 23.40641 | 17357 ft | 455 kts | 140° |
| 2026-05-07 05:51 | 38.24256 | 23.43196 | 16540 ft | 449 kts | 140° |
| 2026-05-07 05:52 | 38.21889 | 23.45674 | 15741 ft | 426 kts | 143° |
| 2026-05-07 05:52 | 38.19473 | 23.47582 | 15252 ft | 393 kts | 154° |
| 2026-05-07 05:52 | 38.17047 | 23.48829 | 14903 ft | 361 kts | 164° |
| 2026-05-07 05:52 | 38.14678 | 23.49535 | 14237 ft | 342 kts | 173° |
| 2026-05-07 05:53 | 38.12332 | 23.49747 | 13367 ft | 334 kts | 182° |
| 2026-05-07 05:53 | 38.10036 | 23.49490 | 12736 ft | 331 kts | 191° |
| 2026-05-07 05:53 | 38.07764 | 23.49000 | 12209 ft | 331 kts | 191° |
| 2026-05-07 05:53 | 38.05497 | 23.48531 | 11688 ft | 330 kts | 190° |
| 2026-05-07 05:54 | 38.03246 | 23.48076 | 11328 ft | 323 kts | 190° |
| 2026-05-07 05:54 | 38.01040 | 23.47631 | 11251 ft | 319 kts | 190° |
| 2026-05-07 05:54 | 37.98926 | 23.47205 | 11136 ft | 306 kts | 190° |
| 2026-05-07 05:54 | 37.96857 | 23.46785 | 10963 ft | 296 kts | 190° |
| 2026-05-07 05:55 | 37.94812 | 23.46365 | 10849 ft | 298 kts | 190° |
| 2026-05-07 05:55 | 37.92764 | 23.45944 | 10713 ft | 297 kts | 190° |
| 2026-05-07 05:55 | 37.90721 | 23.45526 | 10581 ft | 297 kts | 190° |
| 2026-05-07 05:55 | 37.88689 | 23.45110 | 10442 ft | 293 kts | 190° |
| 2026-05-07 05:56 | 37.86723 | 23.44706 | 10325 ft | 281 kts | 190° |
| 2026-05-07 05:56 | 37.84836 | 23.44321 | 10171 ft | 269 kts | 189° |
| 2026-05-07 05:56 | 37.83019 | 23.43952 | 10026 ft | 260 kts | 190° |
| 2026-05-07 05:56 | 37.81242 | 23.43585 | 9856 ft | 261 kts | 189° |
| 2026-05-07 05:57 | 37.79417 | 23.43660 | 9469 ft | 263 kts | 165° |
| 2026-05-07 05:57 | 37.77798 | 23.44629 | 8949 ft | 257 kts | 140° |
| 2026-05-07 05:57 | 37.76647 | 23.46313 | 8463 ft | 254 kts | 117° |
| 2026-05-07 05:57 | 37.76103 | 23.48408 | 8032 ft | 252 kts | 96° |
| 2026-05-07 05:58 | 37.75913 | 23.50604 | 7606 ft | 252 kts | 96° |
| 2026-05-07 05:58 | 37.75723 | 23.52799 | 7181 ft | 252 kts | 96° |
| 2026-05-07 05:58 | 37.75529 | 23.55016 | 6757 ft | 255 kts | 96° |
| 2026-05-07 05:58 | 37.75335 | 23.57214 | 6552 ft | 249 kts | 97° |
| 2026-05-07 05:59 | 37.75144 | 23.59372 | 6250 ft | 246 kts | 97° |
| 2026-05-07 05:59 | 37.74953 | 23.61518 | 5915 ft | 245 kts | 97° |
| 2026-05-07 05:59 | 37.74761 | 23.63648 | 5583 ft | 243 kts | 97° |
| 2026-05-07 05:59 | 37.74569 | 23.65768 | 5255 ft | 242 kts | 97° |
| 2026-05-07 06:00 | 37.74382 | 23.67845 | 4859 ft | 243 kts | 97° |
| 2026-05-07 06:00 | 37.74187 | 23.70009 | 4320 ft | 247 kts | 97° |
| 2026-05-07 06:00 | 37.74068 | 23.72148 | 4105 ft | 240 kts | 86° |
| 2026-05-07 06:00 | 37.74459 | 23.74174 | 3983 ft | 238 kts | 65° |
| 2026-05-07 06:01 | 37.75372 | 23.75895 | 3886 ft | 238 kts | 45° |
| 2026-05-07 06:01 | 37.76658 | 23.77215 | 3789 ft | 238 kts | 37° |
| 2026-05-07 06:01 | 37.77956 | 23.78435 | 3691 ft | 225 kts | 37° |
| 2026-05-07 06:01 | 37.79187 | 23.79598 | 3470 ft | 215 kts | 37° |
| 2026-05-07 06:02 | 37.80358 | 23.80706 | 3200 ft | 205 kts | 37° |
| 2026-05-07 06:02 | 37.81479 | 23.81767 | 2930 ft | 197 kts | 37° |
| 2026-05-07 06:02 | 37.82562 | 23.82792 | 2669 ft | 192 kts | 37° |
| 2026-05-07 06:02 | 37.83619 | 23.83792 | 2409 ft | 187 kts | 37° |
| 2026-05-07 06:03 | 37.84618 | 23.84739 | 2169 ft | 177 kts | 37° |
| 2026-05-07 06:03 | 37.85579 | 23.85651 | 1943 ft | 170 kts | 37° |
| 2026-05-07 06:03 | 37.86505 | 23.86530 | 1719 ft | 163 kts | 37° |
| 2026-05-07 06:03 | 37.87398 | 23.87375 | 1501 ft | 158 kts | 37° |
| 2026-05-07 06:04 | 37.88260 | 23.88192 | 1299 ft | 153 kts | 37° |
| 2026-05-07 06:04 | 37.89104 | 23.88994 | 1093 ft | 150 kts | 37° |
| 2026-05-07 06:04 | 37.89941 | 23.89787 | 900 ft | 150 kts | 37° |
| 2026-05-07 06:04 | 37.90771 | 23.90575 | 701 ft | 149 kts | 36° |
| 2026-05-07 06:05 | 37.91600 | 23.91360 | 506 ft | 148 kts | 37° |
| 2026-05-07 06:05 | 37.92421 | 23.92155 | 317 ft | 148 kts | 37° |
| 2026-05-07 06:05 | 37.93145 | 23.92837 | 295 ft | 98 kts | 37° |
| 2026-05-07 06:05 | 37.93510 | 23.93190 | 292 ft | 47 kts | 39° |
| 2026-05-07 06:06 | 37.93615 | 23.93408 | 298 ft | 19 kts | 68° |
| 2026-05-07 06:06 | 37.93649 | 23.93515 | 298 ft | 12 kts | 68° |
| 2026-05-07 06:06 | 37.93674 | 23.93599 | 301 ft | 8 kts | 75° |
| 2026-05-07 06:06 | 37.93674 | 23.93634 | 299 ft | 7 kts | 105° |
| 2026-05-07 06:07 | 37.93649 | 23.93731 | 300 ft | 14 kts | 79° |
| 2026-05-07 06:07 | 37.93726 | 23.93811 | 303 ft | 15 kts | 34° |
| 2026-05-07 06:07 | 37.93814 | 23.93893 | 301 ft | 17 kts | 36° |
| 2026-05-07 06:07 | 37.93910 | 23.93984 | 301 ft | 18 kts | 37° |
| 2026-05-07 06:08 | 37.94014 | 23.94084 | 302 ft | 19 kts | 37° |
| 2026-05-07 06:08 | 37.94126 | 23.94190 | 301 ft | 21 kts | 37° |
| 2026-05-07 06:08 | 37.94244 | 23.94301 | 301 ft | 22 kts | 37° |
| 2026-05-07 06:08 | 37.94369 | 23.94420 | 304 ft | 23 kts | 37° |
| 2026-05-07 06:09 | 37.94501 | 23.94545 | 303 ft | 24 kts | 37° |
| 2026-05-07 06:09 | 37.94603 | 23.94641 | 301 ft | 15 kts | 37° |
| 2026-05-07 06:09 | 37.94605 | 23.94758 | 301 ft | 16 kts | 124° |
| 2026-05-07 06:09 | 37.94536 | 23.94877 | 303 ft | 18 kts | 127° |
| 2026-05-07 06:10 | 37.94460 | 23.95005 | 301 ft | 19 kts | 127° |
| 2026-05-07 06:10 | 37.94377 | 23.95142 | 301 ft | 20 kts | 127° |
| 2026-05-07 06:10 | 37.94296 | 23.95279 | 301 ft | 19 kts | 127° |
| 2026-05-07 06:10 | 37.94213 | 23.95420 | 301 ft | 21 kts | 127° |
| 2026-05-07 06:11 | 37.94130 | 23.95548 | 302 ft | 16 kts | 147° |
| 2026-05-07 06:11 | 37.94029 | 23.95498 | 302 ft | 17 kts | 217° |
| 2026-05-07 06:11 | 37.93930 | 23.95404 | 303 ft | 19 kts | 217° |
| 2026-05-07 06:11 | 37.93872 | 23.95273 | 303 ft | 17 kts | 249° |
| 2026-05-07 06:12 | 37.93805 | 23.95154 | 301 ft | 11 kts | 223° |
| 2026-05-07 06:12 | 37.93820 | 23.95087 | 301 ft | 9 kts | 305° |
| 2026-05-07 06:12 | 37.93835 | 23.95062 | 301 ft | 0 kts | 307° |